createdAt,value
2018-12-14T00:01:09.914Z,28.50
2018-12-14T00:03:41.651Z,26.83
2018-12-14T00:06:14.352Z,26.50
2018-12-14T00:08:44.249Z,27.70
2018-12-14T00:11:13.638Z,27.87
2018-12-14T00:13:43.150Z,28.80
2018-12-14T00:16:12.427Z,27.03
2018-12-14T00:18:41.777Z,30.53
2018-12-14T00:21:11.558Z,32.43
2018-12-14T00:23:41.089Z,29.43
2018-12-14T00:26:10.907Z,30.67
2018-12-14T00:28:41.197Z,29.13
2018-12-14T00:31:10.663Z,28.57
2018-12-14T00:33:40.217Z,31.23
2018-12-14T00:36:09.893Z,27.67
2018-12-14T00:38:40.064Z,29.43
2018-12-14T00:41:10.245Z,31.17
2018-12-14T00:43:39.575Z,29.00
2018-12-14T00:46:08.982Z,31.30
2018-12-14T00:48:38.957Z,29.37
2018-12-14T00:51:08.297Z,31.60
2018-12-14T00:53:37.851Z,31.93
2018-12-14T00:56:07.718Z,33.63
2018-12-14T00:58:37.240Z,31.53
2018-12-14T01:01:07.649Z,29.87
2018-12-14T01:03:37.565Z,29.00
2018-12-14T01:06:07.662Z,31.07
2018-12-14T01:08:37.670Z,29.17
2018-12-14T01:11:07.048Z,26.33
2018-12-14T01:13:36.744Z,29.30
2018-12-14T01:16:06.248Z,29.27
2018-12-14T01:18:35.944Z,27.70
2018-12-14T01:21:05.576Z,27.30
2018-12-14T01:23:34.951Z,30.10
2018-12-14T01:26:04.630Z,32.73
2018-12-14T01:28:34.279Z,33.77
2018-12-14T01:31:04.478Z,36.67
2018-12-14T01:33:35.212Z,36.10
2018-12-14T01:54:08.175Z,25.43
2018-12-14T01:56:37.663Z,23.50
2018-12-14T01:59:07.116Z,22.63
2018-12-14T02:01:36.568Z,27.97
2018-12-14T02:04:18.110Z,24.87
2018-12-14T02:06:47.564Z,23.57
2018-12-14T02:09:17.589Z,26.00
2018-12-14T02:14:47.545Z,25.30
2018-12-14T02:17:17.091Z,23.97
2018-12-14T02:19:46.667Z,25.40
2018-12-14T02:22:16.274Z,21.93
2018-12-14T02:24:45.677Z,22.93
2018-12-14T02:27:15.285Z,26.33
2018-12-14T02:29:44.940Z,25.63
2018-12-14T02:32:14.519Z,24.57
2018-12-14T02:34:43.979Z,21.37
2018-12-14T02:37:13.551Z,24.57
2018-12-14T02:39:42.811Z,23.07
2018-12-14T02:42:19.150Z,24.17
2018-12-14T02:44:43.636Z,23.43
2018-12-14T02:47:13.171Z,22.87
2018-12-14T02:49:42.648Z,21.83
2018-12-14T02:52:12.112Z,25.77
2018-12-14T02:54:41.478Z,22.30
2018-12-14T02:57:10.841Z,23.90
2018-12-14T02:59:40.090Z,22.13
2018-12-14T03:02:09.364Z,22.87
2018-12-14T03:04:40.998Z,24.30
2018-12-14T03:07:10.407Z,22.30
2018-12-14T03:09:39.845Z,27.37
2018-12-14T03:12:09.151Z,30.83
2018-12-14T03:14:38.646Z,25.73
2018-12-14T03:17:08.468Z,21.03
2018-12-14T03:19:38.097Z,20.60
2018-12-14T03:40:12.220Z,18.30
2018-12-14T03:42:41.508Z,20.80
2018-12-14T03:45:11.059Z,21.50
2018-12-14T03:47:40.360Z,19.63
2018-12-14T03:50:09.668Z,22.20
2018-12-14T03:52:38.918Z,24.23
2018-12-14T03:55:08.223Z,20.90
2018-12-14T03:57:37.487Z,20.93
2018-12-14T04:00:09.888Z,19.57
2018-12-14T04:22:34.855Z,18.40
2018-12-14T04:25:05.038Z,20.93
2018-12-14T04:27:34.655Z,18.87
2018-12-14T04:30:10.710Z,19.40
2018-12-14T04:32:41.004Z,19.00
2018-12-14T04:35:10.270Z,17.97
2018-12-14T04:37:39.574Z,19.03
2018-12-14T04:40:09.553Z,20.70
2018-12-14T04:42:39.313Z,19.07
2018-12-14T04:45:08.774Z,19.70
2018-12-14T04:47:39.267Z,17.57
2018-12-14T04:50:10.505Z,17.83
2018-12-14T04:52:40.261Z,18.50
2018-12-14T04:55:09.642Z,22.83
2018-12-14T04:57:38.928Z,18.17
2018-12-14T05:00:09.337Z,19.33
2018-12-14T05:02:38.957Z,18.70
2018-12-14T05:05:08.563Z,19.60
2018-12-14T05:07:38.122Z,21.23
2018-12-14T05:10:08.187Z,21.23
2018-12-14T05:12:39.080Z,18.40
2018-12-14T05:15:09.245Z,22.80
2018-12-14T05:17:39.125Z,19.67
2018-12-14T05:20:09.187Z,19.77
2018-12-14T05:22:38.747Z,21.63
2018-12-14T05:25:08.646Z,21.40
2018-12-14T05:27:38.093Z,21.07
2018-12-14T05:30:08.480Z,16.60
2018-12-14T05:32:37.867Z,18.50
2018-12-14T05:35:07.469Z,19.33
2018-12-14T05:37:37.207Z,20.97
2018-12-14T05:40:06.858Z,20.53
2018-12-14T05:42:37.724Z,17.23
2018-12-14T05:45:08.084Z,19.53
2018-12-14T05:47:40.320Z,19.63
2018-12-14T05:50:09.865Z,19.27
2018-12-14T05:52:39.278Z,18.90
2018-12-14T05:55:09.270Z,21.10
2018-12-14T05:57:39.084Z,22.93
2018-12-14T06:00:11.113Z,22.53
2018-12-14T06:02:47.062Z,24.37
2018-12-14T06:05:16.518Z,21.30
2018-12-14T06:07:46.024Z,19.07
2018-12-14T06:10:15.308Z,21.73
2018-12-14T06:12:44.940Z,22.47
2018-12-14T06:15:14.222Z,22.57
2018-12-14T06:17:43.504Z,21.00
2018-12-14T06:20:12.862Z,18.30
2018-12-14T06:22:42.204Z,19.10
2018-12-14T06:25:11.994Z,21.03
2018-12-14T06:27:41.358Z,21.43
2018-12-14T06:30:11.478Z,22.27
2018-12-14T06:32:40.818Z,20.20
2018-12-14T06:35:11.922Z,18.50
2018-12-14T06:37:41.264Z,21.63
2018-12-14T06:40:10.591Z,24.30
2018-12-14T06:42:39.904Z,26.90
2018-12-14T06:45:10.068Z,23.97
2018-12-14T06:47:39.587Z,35.40
2018-12-14T07:08:06.067Z,22.00
2018-12-14T07:10:35.792Z,20.53
2018-12-14T07:13:06.171Z,19.23
2018-12-14T07:15:35.898Z,24.93
2018-12-14T07:18:05.708Z,22.73
2018-12-14T07:20:35.208Z,19.00
2018-12-14T07:23:04.518Z,20.67
2018-12-14T07:25:33.889Z,21.43
2018-12-14T07:28:03.370Z,20.63
2018-12-14T07:30:32.632Z,22.40
2018-12-14T07:33:01.996Z,22.07
2018-12-14T07:35:31.396Z,21.83
2018-12-14T07:38:00.802Z,24.33
2018-12-14T07:40:39.876Z,29.33
2018-12-14T07:43:09.602Z,26.10
2018-12-14T07:45:39.154Z,24.80
2018-12-14T07:48:08.672Z,24.17
2018-12-14T07:50:37.944Z,28.17
2018-12-14T07:53:09.277Z,27.23
2018-12-14T07:55:38.806Z,29.07
2018-12-14T07:58:08.211Z,32.23
2018-12-14T08:00:37.522Z,22.57
2018-12-14T08:03:06.848Z,21.63
2018-12-14T08:05:36.254Z,28.93
2018-12-14T08:08:05.775Z,23.40
2018-12-14T08:10:35.068Z,26.57
2018-12-14T08:13:04.766Z,26.40
2018-12-14T08:15:34.188Z,30.30
2018-12-14T08:18:03.526Z,33.23
2018-12-14T08:20:33.030Z,28.63
2018-12-14T08:23:02.547Z,27.13
2018-12-14T08:25:32.071Z,26.10
2018-12-14T08:28:01.427Z,24.93
2018-12-14T08:30:30.889Z,26.90
2018-12-14T08:33:00.280Z,26.20
2018-12-14T08:35:29.734Z,23.13
2018-12-14T08:37:59.003Z,25.30
2018-12-14T08:40:28.286Z,28.87
2018-12-14T08:42:57.690Z,24.27
2018-12-14T08:45:27.508Z,24.53
2018-12-14T08:47:57.118Z,23.67
2018-12-14T08:50:26.432Z,22.27
2018-12-14T08:52:55.773Z,23.27
2018-12-14T08:55:25.084Z,26.30
2018-12-14T08:57:54.529Z,25.53
2018-12-14T09:00:23.991Z,27.10
2018-12-14T09:02:53.504Z,24.03
2018-12-14T09:05:24.019Z,28.27
2018-12-14T09:07:53.387Z,26.47
2018-12-14T09:10:27.026Z,27.87
2018-12-14T09:12:56.407Z,26.33
2018-12-14T09:15:25.715Z,26.37
2018-12-14T09:17:55.017Z,25.00
2018-12-14T09:20:24.542Z,24.70
2018-12-14T09:22:54.184Z,26.90
2018-12-14T09:25:23.495Z,24.83
2018-12-14T09:27:52.751Z,22.43
2018-12-14T09:30:22.154Z,22.27
2018-12-14T09:32:51.747Z,23.80
2018-12-14T09:35:22.107Z,23.80
2018-12-14T09:37:51.539Z,21.27
2018-12-14T09:40:21.222Z,23.97
2018-12-14T09:42:50.652Z,23.07
2018-12-14T09:45:20.277Z,25.17
2018-12-14T09:47:49.893Z,23.27
2018-12-14T09:50:19.405Z,21.77
2018-12-14T09:52:49.065Z,25.50
2018-12-14T09:55:18.504Z,20.93
2018-12-14T09:57:47.922Z,23.57
2018-12-14T10:00:18.122Z,23.43
2018-12-14T10:02:47.846Z,21.83
2018-12-14T10:05:17.289Z,21.07
2018-12-14T10:07:47.250Z,24.57
2018-12-14T10:10:16.772Z,21.70
2018-12-14T10:12:46.432Z,24.30
2018-12-14T10:15:15.990Z,22.80
2018-12-14T10:17:45.508Z,22.73
2018-12-14T10:20:15.623Z,23.63
2018-12-14T10:22:45.266Z,24.23
2018-12-14T10:25:14.892Z,24.23
2018-12-14T10:27:44.425Z,22.93
2018-12-14T10:30:16.606Z,23.03
2018-12-14T10:32:45.995Z,22.03
2018-12-14T10:35:15.607Z,23.10
2018-12-14T10:37:50.268Z,23.23
2018-12-14T10:40:20.607Z,28.03
2018-12-14T10:42:50.073Z,22.87
2018-12-14T10:45:20.208Z,26.17
2018-12-14T10:47:49.602Z,25.87
2018-12-14T10:50:20.073Z,49.30
2018-12-14T10:52:49.459Z,59.50
2018-12-14T10:55:18.757Z,45.73
2018-12-14T10:57:48.835Z,50.47
2018-12-14T11:00:23.865Z,43.57
2018-12-14T11:02:53.573Z,36.80
2018-12-14T11:05:23.295Z,46.67
2018-12-14T11:07:53.315Z,24.57
2018-12-14T11:10:22.923Z,21.87
2018-12-14T11:12:52.689Z,24.10
2018-12-14T11:15:22.280Z,22.17
2018-12-14T11:17:51.611Z,19.43
2018-12-14T11:20:20.870Z,19.97
2018-12-14T11:22:50.353Z,33.90
2018-12-14T11:25:19.700Z,26.20
2018-12-14T11:27:49.232Z,22.17
2018-12-14T11:30:19.072Z,24.97
2018-12-14T11:32:49.192Z,21.60
2018-12-14T11:35:19.240Z,25.10
2018-12-14T11:37:48.820Z,23.93
2018-12-14T11:40:18.594Z,36.87
2018-12-14T11:42:48.243Z,27.77
2018-12-14T11:45:17.832Z,26.47
2018-12-14T11:47:47.403Z,24.20
2018-12-14T11:50:16.793Z,21.97
2018-12-14T11:52:46.296Z,22.20
2018-12-14T11:55:15.685Z,23.20
2018-12-14T11:57:45.218Z,22.90
2018-12-14T12:00:15.314Z,22.83
2018-12-14T12:02:45.163Z,34.20
2018-12-14T12:05:14.418Z,24.87
2018-12-14T12:07:44.375Z,26.23
2018-12-14T12:10:13.944Z,29.93
2018-12-14T12:12:44.478Z,34.30
2018-12-14T12:15:13.955Z,41.90
2018-12-14T12:17:49.431Z,36.57
2018-12-14T12:20:16.791Z,29.53
2018-12-14T12:22:46.541Z,27.87
2018-12-14T12:25:15.875Z,26.60
2018-12-14T12:27:45.445Z,25.47
2018-12-14T12:30:14.855Z,25.60
2018-12-14T12:32:50.721Z,24.47
2018-12-14T12:35:20.123Z,23.13
2018-12-14T12:37:49.641Z,25.00
2018-12-14T12:40:20.116Z,22.40
2018-12-14T12:42:49.685Z,21.20
2018-12-14T12:45:20.304Z,28.00
2018-12-14T12:47:50.077Z,31.00
2018-12-14T12:50:19.421Z,26.33
2018-12-14T12:52:50.130Z,24.50
2018-12-14T13:31:26.078Z,20.83
2018-12-14T13:33:55.431Z,24.20
2018-12-14T13:36:24.685Z,26.23
2018-12-14T13:38:54.043Z,24.03
2018-12-14T13:41:23.419Z,25.33
2018-12-14T13:43:52.862Z,23.70
2018-12-14T13:46:22.538Z,23.27
2018-12-14T13:48:51.822Z,27.93
2018-12-14T13:51:21.123Z,29.43
2018-12-14T13:53:50.535Z,29.57
2018-12-14T13:56:19.867Z,29.70
2018-12-14T13:58:49.173Z,32.33
2018-12-14T14:01:18.733Z,54.13
2018-12-14T14:03:48.137Z,54.07
2018-12-14T14:06:17.521Z,48.80
2018-12-14T14:08:47.031Z,32.40
2018-12-14T14:11:16.416Z,24.90
2018-12-14T14:20:04.698Z,28.03
2018-12-14T14:22:34.231Z,27.73
2018-12-14T14:31:08.917Z,27.87
2018-12-14T14:33:39.635Z,26.50
2018-12-14T14:36:09.724Z,31.47
2018-12-14T14:41:39.610Z,30.60
2018-12-14T14:44:09.080Z,32.30
2018-12-14T14:46:38.452Z,29.17
2018-12-14T14:49:07.918Z,27.87
2018-12-14T14:51:37.224Z,27.60
2018-12-14T14:54:06.730Z,27.33
2018-12-14T14:56:36.311Z,26.63
2018-12-14T14:59:05.728Z,27.60
2018-12-14T15:01:35.079Z,31.13
2018-12-14T15:04:04.658Z,30.03
2018-12-14T15:06:34.069Z,29.23
2018-12-14T15:09:05.633Z,29.07
2018-12-14T15:11:37.034Z,31.50
2018-12-14T15:14:06.422Z,28.90
2018-12-14T15:16:35.830Z,28.83
2018-12-14T15:19:06.197Z,27.30
2018-12-14T15:21:35.584Z,30.17
2018-12-14T15:24:04.928Z,30.30
2018-12-14T15:26:34.242Z,37.90
2018-12-14T15:29:03.649Z,31.10
2018-12-14T15:31:34.213Z,30.07
2018-12-14T15:34:03.543Z,31.80
2018-12-14T15:36:32.789Z,29.83
2018-12-14T15:39:06.697Z,31.30
2018-12-14T15:41:38.207Z,37.53
2018-12-14T15:44:07.579Z,32.57
2018-12-14T15:46:36.839Z,29.30
2018-12-14T15:49:07.508Z,30.33
2018-12-14T15:51:37.269Z,27.53
2018-12-14T16:15:36.777Z,43.07
2018-12-14T16:18:06.417Z,40.90
2018-12-14T16:20:36.258Z,35.77
2018-12-14T16:23:06.039Z,35.57
2018-12-14T16:25:35.446Z,35.07
2018-12-14T16:28:05.209Z,38.13
2018-12-14T16:30:35.756Z,33.90
2018-12-14T16:33:05.344Z,36.93
2018-12-14T16:35:34.841Z,37.10
2018-12-14T16:38:04.211Z,37.80
2018-12-14T16:40:33.714Z,51.83
2018-12-14T16:43:03.086Z,54.00
2018-12-14T16:45:33.234Z,52.57
2018-12-14T16:48:02.842Z,45.47
2018-12-14T17:08:32.376Z,43.90
2018-12-14T17:11:50.134Z,45.60
2018-12-14T17:14:19.460Z,43.10
2018-12-14T17:16:48.780Z,47.77
2018-12-14T17:19:24.834Z,47.73
2018-12-14T17:21:54.260Z,42.20
2018-12-14T17:24:23.618Z,42.50
2018-12-14T17:26:53.046Z,43.03
2018-12-14T17:29:22.391Z,47.07
2018-12-14T17:31:51.857Z,42.80
2018-12-14T17:34:21.680Z,43.77
2018-12-14T17:36:50.962Z,45.13
2018-12-14T17:39:22.486Z,42.20
2018-12-14T17:41:52.019Z,42.60
2018-12-14T17:44:21.719Z,44.43
2018-12-14T17:46:51.617Z,48.00
2018-12-14T17:49:21.005Z,51.13
2018-12-14T17:51:50.535Z,54.10
2018-12-14T17:54:20.015Z,52.67
2018-12-14T17:56:49.421Z,45.20
2018-12-14T17:59:18.924Z,51.43
2018-12-14T18:01:48.679Z,61.75
2018-12-14T18:04:18.056Z,52.53
2018-12-14T18:06:47.364Z,51.43
2018-12-14T18:09:16.764Z,46.63
2018-12-14T18:11:46.074Z,48.57
2018-12-14T18:14:16.162Z,67.30
2018-12-14T18:16:45.946Z,78.37
2018-12-14T18:19:15.627Z,95.60
2018-12-14T18:21:45.111Z,82.57
2018-12-14T18:24:15.530Z,84.83
2018-12-14T18:26:45.494Z,66.60
2018-12-14T18:42:45.915Z,50.23
2018-12-14T18:45:15.435Z,56.17
2018-12-14T18:47:45.445Z,51.10
2018-12-14T18:50:14.918Z,51.90
2018-12-14T18:52:44.211Z,50.17
2018-12-14T19:13:12.465Z,41.40
2018-12-14T19:15:41.931Z,53.07
2018-12-14T19:18:11.326Z,43.80
2018-12-14T19:20:41.158Z,40.83
2018-12-14T19:23:10.847Z,39.03
2018-12-14T19:25:40.487Z,43.10
2018-12-14T19:28:10.145Z,42.43
2018-12-14T19:30:39.714Z,46.47
2018-12-14T19:33:09.219Z,44.57
2018-12-14T19:35:39.597Z,47.03
2018-12-14T19:38:09.135Z,45.40
2018-12-14T19:40:38.506Z,45.37
2018-12-14T19:43:08.474Z,45.47
2018-12-14T19:45:39.394Z,46.70
2018-12-14T19:48:10.527Z,44.17
2018-12-14T19:50:42.166Z,45.33
2018-12-14T19:53:14.682Z,45.90
2018-12-14T19:55:44.378Z,49.20
2018-12-14T19:58:14.394Z,48.67
2018-12-14T20:00:47.037Z,47.83
2018-12-14T20:03:16.650Z,53.23
2018-12-14T20:05:46.256Z,52.17
2018-12-14T20:08:20.502Z,54.23
2018-12-14T20:10:50.084Z,54.63
2018-12-14T20:13:25.963Z,53.23
2018-12-14T20:15:57.655Z,59.77
2018-12-14T20:18:28.240Z,57.33
2018-12-14T20:21:05.716Z,58.30
2018-12-14T20:23:35.779Z,55.53
2018-12-14T20:26:05.553Z,56.00
2018-12-14T20:28:35.272Z,55.70
2018-12-14T20:31:05.790Z,53.90
2018-12-14T20:33:35.916Z,51.83
2018-12-14T20:36:05.978Z,55.37
2018-12-14T20:38:36.353Z,53.77
2018-12-14T20:41:05.741Z,49.50
2018-12-14T20:43:36.640Z,50.33
2018-12-14T20:46:06.447Z,47.63
2018-12-14T20:48:36.765Z,49.83
2018-12-14T20:51:06.375Z,47.60
2018-12-14T20:53:36.288Z,54.50
2018-12-14T20:56:05.758Z,51.10
2018-12-14T20:58:35.448Z,51.57
2018-12-14T21:01:05.283Z,50.07
2018-12-14T21:03:35.270Z,51.40
2018-12-14T21:06:04.957Z,48.47
2018-12-14T21:08:35.804Z,48.53
2018-12-14T21:11:05.849Z,51.33
2018-12-14T21:13:35.905Z,46.97
2018-12-14T21:16:05.605Z,47.47
2018-12-14T21:18:35.188Z,46.67
2018-12-14T21:21:04.915Z,48.43
2018-12-14T21:23:34.523Z,45.70
2018-12-14T21:26:03.891Z,46.60
2018-12-14T21:28:33.362Z,46.60
2018-12-14T21:31:02.873Z,47.73
2018-12-14T21:33:32.852Z,49.60
2018-12-14T21:36:02.918Z,46.33
2018-12-14T21:38:32.402Z,49.03
2018-12-14T21:41:01.799Z,44.93
2018-12-14T21:43:31.176Z,45.40
2018-12-14T21:46:00.640Z,50.40
2018-12-14T21:48:31.113Z,50.90
2018-12-14T21:51:00.632Z,46.40
2018-12-14T21:53:30.225Z,49.10
2018-12-14T21:55:59.730Z,47.90
2018-12-14T21:58:29.375Z,46.23
2018-12-14T22:00:58.873Z,50.27
2018-12-14T22:03:28.340Z,47.93
2018-12-14T22:05:57.768Z,46.87
2018-12-14T22:08:27.406Z,43.47
2018-12-14T22:10:56.835Z,47.13
2018-12-14T22:13:26.437Z,45.43
2018-12-14T22:15:56.033Z,46.03
2018-12-14T22:18:25.386Z,49.47
2018-12-14T22:20:55.082Z,49.37
2018-12-14T22:23:24.718Z,50.10
2018-12-14T22:25:54.181Z,53.27
2018-12-14T22:28:23.760Z,50.07
2018-12-14T22:30:53.426Z,48.17
2018-12-14T22:33:22.863Z,49.70
2018-12-14T22:35:52.366Z,48.40
2018-12-14T22:38:22.018Z,52.97
2018-12-14T22:40:51.492Z,48.53
2018-12-14T22:43:21.043Z,45.67
2018-12-14T22:45:50.360Z,49.00
2018-12-14T22:48:19.796Z,47.27
2018-12-14T22:50:49.128Z,48.27
2018-12-14T22:53:18.557Z,45.50
2018-12-14T22:55:48.107Z,50.07
2018-12-14T22:58:17.338Z,51.57
2018-12-14T23:00:54.118Z,57.43
2018-12-14T23:03:24.416Z,50.07
2018-12-14T23:05:55.100Z,53.83
2018-12-14T23:08:24.542Z,57.00
2018-12-14T23:10:54.156Z,51.93
2018-12-14T23:13:23.785Z,47.93
2018-12-14T23:15:53.375Z,46.67
2018-12-14T23:18:22.798Z,48.97
2018-12-14T23:20:52.383Z,44.43
2018-12-14T23:23:21.810Z,48.70
2018-12-14T23:25:51.498Z,48.60
2018-12-14T23:28:21.000Z,47.57
2018-12-14T23:30:50.253Z,48.30
2018-12-14T23:33:19.604Z,46.73
2018-12-14T23:35:49.120Z,45.67
2018-12-14T23:38:18.813Z,47.00
2018-12-14T23:40:48.268Z,40.97
2018-12-14T23:43:17.894Z,46.03
2018-12-14T23:45:47.104Z,44.80
2018-12-14T23:48:16.635Z,43.23
2018-12-14T23:50:46.002Z,41.47
2018-12-14T23:53:15.293Z,47.67
2018-12-14T23:55:44.747Z,44.07
2018-12-14T23:58:14.020Z,42.63
